sensor_id;sensor_type;location;lat;lon;timestamp;P1;durP1;ratioP1;P2;durP2;ratioP2
18376;SDS011;9315;52.624;13.544;2022-10-16T00:01:39;4.30;;;2.40;;
18376;SDS011;9315;52.624;13.544;2022-10-16T00:04:06;3.37;;;3.07;;
18376;SDS011;9315;52.624;13.544;2022-10-16T00:06:35;7.60;;;3.20;;
18376;SDS011;9315;52.624;13.544;2022-10-16T00:09:02;6.03;;;3.20;;
18376;SDS011;9315;52.624;13.544;2022-10-16T00:11:33;4.23;;;3.07;;
18376;SDS011;9315;52.624;13.544;2022-10-16T00:14:06;5.13;;;3.00;;
18376;SDS011;9315;52.624;13.544;2022-10-16T00:16:38;3.40;;;3.03;;
18376;SDS011;9315;52.624;13.544;2022-10-16T00:19:05;4.83;;;3.00;;
18376;SDS011;9315;52.624;13.544;2022-10-16T00:21:33;5.33;;;3.17;;
18376;SDS011;9315;52.624;13.544;2022-10-16T00:24:02;3.70;;;3.07;;
18376;SDS011;9315;52.624;13.544;2022-10-16T00:26:37;4.87;;;3.43;;
18376;SDS011;9315;52.624;13.544;2022-10-16T00:29:07;8.43;;;3.07;;
18376;SDS011;9315;52.624;13.544;2022-10-16T00:31:34;2.90;;;2.57;;
18376;SDS011;9315;52.624;13.544;2022-10-16T00:34:02;6.90;;;2.37;;
18376;SDS011;9315;52.624;13.544;2022-10-16T00:36:29;3.70;;;2.90;;
18376;SDS011;9315;52.624;13.544;2022-10-16T00:38:56;9.60;;;2.90;;
18376;SDS011;9315;52.624;13.544;2022-10-16T00:41:31;3.77;;;3.00;;
18376;SDS011;9315;52.624;13.544;2022-10-16T00:44:00;6.60;;;2.33;;
18376;SDS011;9315;52.624;13.544;2022-10-16T00:46:50;5.63;;;2.87;;
18376;SDS011;9315;52.624;13.544;2022-10-16T00:49:18;8.87;;;2.27;;
18376;SDS011;9315;52.624;13.544;2022-10-16T00:51:47;2.67;;;2.27;;
18376;SDS011;9315;52.624;13.544;2022-10-16T00:54:24;4.93;;;2.50;;
18376;SDS011;9315;52.624;13.544;2022-10-16T00:56:56;4.33;;;2.20;;
18376;SDS011;9315;52.624;13.544;2022-10-16T00:59:33;2.80;;;2.30;;
18376;SDS011;9315;52.624;13.544;2022-10-16T01:02:09;4.33;;;2.00;;
18376;SDS011;9315;52.624;13.544;2022-10-16T01:04:42;5.43;;;2.40;;
18376;SDS011;9315;52.624;13.544;2022-10-16T01:10:35;2.20;;;1.80;;
18376;SDS011;9315;52.624;13.544;2022-10-16T01:13:27;3.13;;;1.90;;
18376;SDS011;9315;52.624;13.544;2022-10-16T01:16:09;4.97;;;1.73;;
18376;SDS011;9315;52.624;13.544;2022-10-16T01:18:57;3.70;;;1.80;;
18376;SDS011;9315;52.624;13.544;2022-10-16T01:21:47;2.10;;;1.90;;
18376;SDS011;9315;52.624;13.544;2022-10-16T01:24:21;1.87;;;1.33;;
18376;SDS011;9315;52.624;13.544;2022-10-16T01:27:30;3.27;;;1.60;;
18376;SDS011;9315;52.624;13.544;2022-10-16T01:30:01;2.10;;;1.23;;
18376;SDS011;9315;52.624;13.544;2022-10-16T01:33:01;5.67;;;1.53;;
18376;SDS011;9315;52.624;13.544;2022-10-16T01:36:25;2.70;;;1.20;;
18376;SDS011;9315;52.624;13.544;2022-10-16T01:39:01;1.40;;;1.10;;
18376;SDS011;9315;52.624;13.544;2022-10-16T01:41:32;3.03;;;1.50;;
18376;SDS011;9315;52.624;13.544;2022-10-16T01:44:06;2.00;;;1.20;;
18376;SDS011;9315;52.624;13.544;2022-10-16T01:46:48;1.70;;;1.00;;
18376;SDS011;9315;52.624;13.544;2022-10-16T01:49:18;2.53;;;1.23;;
18376;SDS011;9315;52.624;13.544;2022-10-16T01:51:51;2.53;;;1.30;;
18376;SDS011;9315;52.624;13.544;2022-10-16T01:54:25;1.00;;;1.00;;
18376;SDS011;9315;52.624;13.544;2022-10-16T01:56:55;1.37;;;1.10;;
18376;SDS011;9315;52.624;13.544;2022-10-16T01:59:24;3.53;;;1.20;;
18376;SDS011;9315;52.624;13.544;2022-10-16T02:01:56;1.07;;;0.87;;
18376;SDS011;9315;52.624;13.544;2022-10-16T02:04:34;2.53;;;0.97;;
18376;SDS011;9315;52.624;13.544;2022-10-16T02:07:20;1.10;;;1.00;;
18376;SDS011;9315;52.624;13.544;2022-10-16T02:09:48;1.07;;;0.97;;
18376;SDS011;9315;52.624;13.544;2022-10-16T02:12:19;4.73;;;1.00;;
18376;SDS011;9315;52.624;13.544;2022-10-16T02:14:58;1.07;;;0.97;;
18376;SDS011;9315;52.624;13.544;2022-10-16T02:17:25;1.93;;;1.07;;
18376;SDS011;9315;52.624;13.544;2022-10-16T02:19:53;5.30;;;1.00;;
18376;SDS011;9315;52.624;13.544;2022-10-16T02:22:31;1.23;;;0.80;;
18376;SDS011;9315;52.624;13.544;2022-10-16T02:25:40;2.73;;;0.90;;
18376;SDS011;9315;52.624;13.544;2022-10-16T02:28:11;2.73;;;0.90;;
18376;SDS011;9315;52.624;13.544;2022-10-16T02:31:01;1.53;;;0.90;;
18376;SDS011;9315;52.624;13.544;2022-10-16T02:33:34;1.53;;;1.10;;
18376;SDS011;9315;52.624;13.544;2022-10-16T02:36:04;2.50;;;1.00;;
18376;SDS011;9315;52.624;13.544;2022-10-16T02:38:33;4.13;;;1.00;;
18376;SDS011;9315;52.624;13.544;2022-10-16T02:41:00;0.80;;;0.70;;
18376;SDS011;9315;52.624;13.544;2022-10-16T02:43:27;1.77;;;0.90;;
18376;SDS011;9315;52.624;13.544;2022-10-16T02:45:55;1.90;;;0.90;;
18376;SDS011;9315;52.624;13.544;2022-10-16T02:48:22;1.47;;;1.00;;
18376;SDS011;9315;52.624;13.544;2022-10-16T02:50:49;2.20;;;1.00;;
18376;SDS011;9315;52.624;13.544;2022-10-16T02:53:17;0.90;;;0.90;;
18376;SDS011;9315;52.624;13.544;2022-10-16T02:55:44;1.90;;;0.83;;
18376;SDS011;9315;52.624;13.544;2022-10-16T02:58:11;0.93;;;0.90;;
18376;SDS011;9315;52.624;13.544;2022-10-16T03:00:37;2.07;;;1.20;;
18376;SDS011;9315;52.624;13.544;2022-10-16T03:03:05;1.70;;;1.00;;
18376;SDS011;9315;52.624;13.544;2022-10-16T03:05:32;1.00;;;1.00;;
18376;SDS011;9315;52.624;13.544;2022-10-16T03:07:59;1.87;;;0.70;;
18376;SDS011;9315;52.624;13.544;2022-10-16T03:10:26;1.13;;;1.00;;
18376;SDS011;9315;52.624;13.544;2022-10-16T03:12:54;2.67;;;1.10;;
18376;SDS011;9315;52.624;13.544;2022-10-16T03:15:20;0.90;;;0.90;;
18376;SDS011;9315;52.624;13.544;2022-10-16T03:17:47;3.07;;;1.20;;
18376;SDS011;9315;52.624;13.544;2022-10-16T03:20:15;1.70;;;1.20;;
18376;SDS011;9315;52.624;13.544;2022-10-16T03:22:42;1.43;;;1.10;;
18376;SDS011;9315;52.624;13.544;2022-10-16T03:25:08;1.47;;;1.37;;
18376;SDS011;9315;52.624;13.544;2022-10-16T03:27:35;2.57;;;1.20;;
18376;SDS011;9315;52.624;13.544;2022-10-16T03:30:02;3.07;;;1.00;;
18376;SDS011;9315;52.624;13.544;2022-10-16T03:32:30;5.10;;;1.00;;
18376;SDS011;9315;52.624;13.544;2022-10-16T03:34:57;3.70;;;1.53;;
18376;SDS011;9315;52.624;13.544;2022-10-16T03:37:24;1.57;;;1.43;;
18376;SDS011;9315;52.624;13.544;2022-10-16T03:39:51;1.73;;;1.17;;
18376;SDS011;9315;52.624;13.544;2022-10-16T03:42:19;2.30;;;1.13;;
18376;SDS011;9315;52.624;13.544;2022-10-16T03:44:46;1.87;;;1.60;;
18376;SDS011;9315;52.624;13.544;2022-10-16T03:47:13;4.13;;;1.53;;
18376;SDS011;9315;52.624;13.544;2022-10-16T03:49:39;3.50;;;1.50;;
18376;SDS011;9315;52.624;13.544;2022-10-16T03:52:06;3.17;;;1.33;;
18376;SDS011;9315;52.624;13.544;2022-10-16T03:54:33;1.40;;;1.17;;
18376;SDS011;9315;52.624;13.544;2022-10-16T03:57:00;2.60;;;1.60;;
18376;SDS011;9315;52.624;13.544;2022-10-16T03:59:27;3.03;;;1.50;;
18376;SDS011;9315;52.624;13.544;2022-10-16T04:01:54;2.93;;;1.00;;
18376;SDS011;9315;52.624;13.544;2022-10-16T04:04:21;1.80;;;1.23;;
18376;SDS011;9315;52.624;13.544;2022-10-16T04:06:48;3.40;;;1.23;;
18376;SDS011;9315;52.624;13.544;2022-10-16T04:09:15;2.23;;;1.20;;
18376;SDS011;9315;52.624;13.544;2022-10-16T04:11:42;2.13;;;1.43;;
18376;SDS011;9315;52.624;13.544;2022-10-16T04:14:09;1.47;;;1.37;;
18376;SDS011;9315;52.624;13.544;2022-10-16T04:16:36;2.87;;;1.50;;
18376;SDS011;9315;52.624;13.544;2022-10-16T04:19:03;4.93;;;1.40;;
18376;SDS011;9315;52.624;13.544;2022-10-16T04:21:30;2.73;;;1.30;;
18376;SDS011;9315;52.624;13.544;2022-10-16T04:23:57;3.07;;;1.43;;
18376;SDS011;9315;52.624;13.544;2022-10-16T04:26:24;5.00;;;1.80;;
18376;SDS011;9315;52.624;13.544;2022-10-16T04:28:51;2.17;;;1.70;;
18376;SDS011;9315;52.624;13.544;2022-10-16T04:31:18;2.93;;;1.67;;
18376;SDS011;9315;52.624;13.544;2022-10-16T04:33:45;3.10;;;1.50;;
18376;SDS011;9315;52.624;13.544;2022-10-16T04:36:12;4.63;;;1.47;;
18376;SDS011;9315;52.624;13.544;2022-10-16T04:38:40;7.70;;;1.70;;
18376;SDS011;9315;52.624;13.544;2022-10-16T04:41:07;2.27;;;1.50;;
18376;SDS011;9315;52.624;13.544;2022-10-16T04:43:34;2.53;;;1.40;;
18376;SDS011;9315;52.624;13.544;2022-10-16T04:46:02;2.20;;;1.20;;
18376;SDS011;9315;52.624;13.544;2022-10-16T04:48:32;2.53;;;1.40;;
18376;SDS011;9315;52.624;13.544;2022-10-16T04:50:59;3.20;;;1.83;;
18376;SDS011;9315;52.624;13.544;2022-10-16T04:53:27;2.53;;;2.13;;
18376;SDS011;9315;52.624;13.544;2022-10-16T04:55:54;4.60;;;2.47;;
18376;SDS011;9315;52.624;13.544;2022-10-16T04:58:22;4.60;;;1.40;;
18376;SDS011;9315;52.624;13.544;2022-10-16T05:00:49;6.50;;;1.20;;
18376;SDS011;9315;52.624;13.544;2022-10-16T05:03:16;1.50;;;1.40;;
18376;SDS011;9315;52.624;13.544;2022-10-16T05:05:43;14.77;;;1.90;;
18376;SDS011;9315;52.624;13.544;2022-10-16T05:08:12;7.07;;;2.23;;
18376;SDS011;9315;52.624;13.544;2022-10-16T05:10:41;5.30;;;2.43;;
18376;SDS011;9315;52.624;13.544;2022-10-16T05:13:10;5.07;;;2.40;;
18376;SDS011;9315;52.624;13.544;2022-10-16T05:15:38;3.63;;;3.17;;
18376;SDS011;9315;52.624;13.544;2022-10-16T05:18:05;3.30;;;2.70;;
18376;SDS011;9315;52.624;13.544;2022-10-16T05:20:32;3.27;;;1.83;;
18376;SDS011;9315;52.624;13.544;2022-10-16T05:22:59;3.53;;;2.60;;
18376;SDS011;9315;52.624;13.544;2022-10-16T05:25:27;2.40;;;2.20;;
18376;SDS011;9315;52.624;13.544;2022-10-16T05:27:54;3.67;;;2.80;;
18376;SDS011;9315;52.624;13.544;2022-10-16T05:30:23;4.47;;;2.90;;
18376;SDS011;9315;52.624;13.544;2022-10-16T05:32:50;5.17;;;2.37;;
18376;SDS011;9315;52.624;13.544;2022-10-16T05:35:17;7.30;;;1.87;;
18376;SDS011;9315;52.624;13.544;2022-10-16T05:37:47;3.53;;;1.90;;
18376;SDS011;9315;52.624;13.544;2022-10-16T05:40:14;7.30;;;1.33;;
18376;SDS011;9315;52.624;13.544;2022-10-16T05:42:42;7.83;;;2.07;;
18376;SDS011;9315;52.624;13.544;2022-10-16T05:45:09;3.87;;;1.87;;
18376;SDS011;9315;52.624;13.544;2022-10-16T05:47:38;2.23;;;1.87;;
18376;SDS011;9315;52.624;13.544;2022-10-16T05:50:06;1.60;;;1.30;;
18376;SDS011;9315;52.624;13.544;2022-10-16T05:52:33;3.83;;;2.43;;
18376;SDS011;9315;52.624;13.544;2022-10-16T05:55:00;8.53;;;1.97;;
18376;SDS011;9315;52.624;13.544;2022-10-16T05:57:27;1.93;;;1.50;;
18376;SDS011;9315;52.624;13.544;2022-10-16T05:59:55;4.23;;;2.50;;
18376;SDS011;9315;52.624;13.544;2022-10-16T06:02:22;4.20;;;2.47;;
18376;SDS011;9315;52.624;13.544;2022-10-16T06:04:49;2.90;;;2.70;;
18376;SDS011;9315;52.624;13.544;2022-10-16T06:07:20;2.27;;;1.60;;
18376;SDS011;9315;52.624;13.544;2022-10-16T06:09:48;3.80;;;2.30;;
18376;SDS011;9315;52.624;13.544;2022-10-16T06:12:17;3.17;;;2.60;;
18376;SDS011;9315;52.624;13.544;2022-10-16T06:14:45;9.23;;;1.70;;
18376;SDS011;9315;52.624;13.544;2022-10-16T06:17:15;3.73;;;2.70;;
18376;SDS011;9315;52.624;13.544;2022-10-16T06:19:42;2.50;;;2.03;;
18376;SDS011;9315;52.624;13.544;2022-10-16T06:22:09;5.97;;;2.33;;
18376;SDS011;9315;52.624;13.544;2022-10-16T06:24:36;3.77;;;1.73;;
18376;SDS011;9315;52.624;13.544;2022-10-16T06:27:03;5.43;;;1.83;;
18376;SDS011;9315;52.624;13.544;2022-10-16T06:29:31;3.80;;;2.17;;
18376;SDS011;9315;52.624;13.544;2022-10-16T06:31:58;3.40;;;2.30;;
18376;SDS011;9315;52.624;13.544;2022-10-16T06:34:25;3.27;;;1.97;;
18376;SDS011;9315;52.624;13.544;2022-10-16T06:36:52;2.83;;;2.10;;
18376;SDS011;9315;52.624;13.544;2022-10-16T06:39:19;2.93;;;2.63;;
18376;SDS011;9315;52.624;13.544;2022-10-16T06:41:46;4.97;;;2.30;;
18376;SDS011;9315;52.624;13.544;2022-10-16T06:44:13;3.73;;;2.53;;
18376;SDS011;9315;52.624;13.544;2022-10-16T06:46:40;3.40;;;2.00;;
18376;SDS011;9315;52.624;13.544;2022-10-16T06:49:07;3.40;;;2.10;;
18376;SDS011;9315;52.624;13.544;2022-10-16T06:51:34;6.97;;;1.70;;
18376;SDS011;9315;52.624;13.544;2022-10-16T06:54:08;1.87;;;1.77;;
18376;SDS011;9315;52.624;13.544;2022-10-16T06:56:35;2.77;;;2.07;;
18376;SDS011;9315;52.624;13.544;2022-10-16T06:59:03;2.97;;;1.77;;
18376;SDS011;9315;52.624;13.544;2022-10-16T07:01:33;3.00;;;1.90;;
18376;SDS011;9315;52.624;13.544;2022-10-16T07:04:00;17.27;;;2.30;;
18376;SDS011;9315;52.624;13.544;2022-10-16T07:06:30;2.83;;;1.90;;
18376;SDS011;9315;52.624;13.544;2022-10-16T07:09:00;4.67;;;1.77;;
18376;SDS011;9315;52.624;13.544;2022-10-16T07:11:36;3.83;;;2.10;;
18376;SDS011;9315;52.624;13.544;2022-10-16T07:14:12;4.03;;;2.03;;
18376;SDS011;9315;52.624;13.544;2022-10-16T07:16:46;2.37;;;1.93;;
18376;SDS011;9315;52.624;13.544;2022-10-16T07:19:14;4.23;;;2.00;;
18376;SDS011;9315;52.624;13.544;2022-10-16T07:21:43;2.03;;;1.77;;
18376;SDS011;9315;52.624;13.544;2022-10-16T07:24:12;2.70;;;2.00;;
18376;SDS011;9315;52.624;13.544;2022-10-16T07:26:42;4.10;;;1.70;;
18376;SDS011;9315;52.624;13.544;2022-10-16T07:29:13;5.20;;;1.67;;
18376;SDS011;9315;52.624;13.544;2022-10-16T07:31:44;8.47;;;1.80;;
18376;SDS011;9315;52.624;13.544;2022-10-16T07:34:15;13.83;;;1.60;;
18376;SDS011;9315;52.624;13.544;2022-10-16T07:36:47;3.57;;;1.60;;
18376;SDS011;9315;52.624;13.544;2022-10-16T07:39:16;3.90;;;1.57;;
18376;SDS011;9315;52.624;13.544;2022-10-16T07:41:43;3.77;;;1.30;;
18376;SDS011;9315;52.624;13.544;2022-10-16T07:44:11;1.70;;;1.43;;
18376;SDS011;9315;52.624;13.544;2022-10-16T07:46:38;3.23;;;1.73;;
18376;SDS011;9315;52.624;13.544;2022-10-16T07:49:05;7.17;;;1.87;;
18376;SDS011;9315;52.624;13.544;2022-10-16T07:51:32;3.00;;;1.47;;
18376;SDS011;9315;52.624;13.544;2022-10-16T07:53:59;5.43;;;1.37;;
18376;SDS011;9315;52.624;13.544;2022-10-16T07:56:26;8.90;;;1.80;;
18376;SDS011;9315;52.624;13.544;2022-10-16T07:58:53;8.93;;;1.13;;
18376;SDS011;9315;52.624;13.544;2022-10-16T08:01:20;13.07;;;1.50;;
18376;SDS011;9315;52.624;13.544;2022-10-16T08:03:48;6.70;;;1.50;;
18376;SDS011;9315;52.624;13.544;2022-10-16T08:06:18;4.70;;;1.80;;
18376;SDS011;9315;52.624;13.544;2022-10-16T08:08:53;4.17;;;1.60;;
18376;SDS011;9315;52.624;13.544;2022-10-16T08:11:22;3.37;;;2.00;;
18376;SDS011;9315;52.624;13.544;2022-10-16T08:13:49;2.23;;;1.57;;
18376;SDS011;9315;52.624;13.544;2022-10-16T08:16:16;2.67;;;1.37;;
18376;SDS011;9315;52.624;13.544;2022-10-16T08:18:43;4.10;;;1.60;;
18376;SDS011;9315;52.624;13.544;2022-10-16T08:21:16;1.70;;;1.20;;
18376;SDS011;9315;52.624;13.544;2022-10-16T08:23:50;1.60;;;1.37;;
18376;SDS011;9315;52.624;13.544;2022-10-16T08:26:23;2.05;;;1.48;;
18376;SDS011;9315;52.624;13.544;2022-10-16T08:28:52;12.25;;;1.80;;
18376;SDS011;9315;52.624;13.544;2022-10-16T08:31:21;3.15;;;1.70;;
18376;SDS011;9315;52.624;13.544;2022-10-16T08:33:49;1.60;;;1.50;;
18376;SDS011;9315;52.624;13.544;2022-10-16T08:36:16;3.13;;;1.50;;
18376;SDS011;9315;52.624;13.544;2022-10-16T08:38:43;2.55;;;1.00;;
18376;SDS011;9315;52.624;13.544;2022-10-16T08:44:10;3.60;;;1.00;;
18376;SDS011;9315;52.624;13.544;2022-10-16T08:47:23;2.13;;;1.20;;
18376;SDS011;9315;52.624;13.544;2022-10-16T08:50:18;7.45;;;1.23;;
18376;SDS011;9315;52.624;13.544;2022-10-16T08:52:57;5.90;;;1.10;;
18376;SDS011;9315;52.624;13.544;2022-10-16T08:58:19;5.77;;;1.50;;
18376;SDS011;9315;52.624;13.544;2022-10-16T09:00:53;1.83;;;1.30;;
18376;SDS011;9315;52.624;13.544;2022-10-16T09:09:36;3.77;;;1.10;;
18376;SDS011;9315;52.624;13.544;2022-10-16T09:12:35;1.43;;;0.90;;
18376;SDS011;9315;52.624;13.544;2022-10-16T09:21:16;1.38;;;1.05;;
18376;SDS011;9315;52.624;13.544;2022-10-16T09:23:59;3.45;;;0.77;;
18376;SDS011;9315;52.624;13.544;2022-10-16T09:26:54;2.10;;;0.90;;
18376;SDS011;9315;52.624;13.544;2022-10-16T09:29:21;2.67;;;0.90;;
18376;SDS011;9315;52.624;13.544;2022-10-16T09:31:51;1.88;;;1.00;;
18376;SDS011;9315;52.624;13.544;2022-10-16T09:34:30;1.58;;;0.90;;
18376;SDS011;9315;52.624;13.544;2022-10-16T09:37:03;1.60;;;0.90;;
18376;SDS011;9315;52.624;13.544;2022-10-16T09:39:47;1.70;;;1.00;;
18376;SDS011;9315;52.624;13.544;2022-10-16T09:42:28;4.32;;;1.00;;
18376;SDS011;9315;52.624;13.544;2022-10-16T09:45:02;1.95;;;1.00;;
18376;SDS011;9315;52.624;13.544;2022-10-16T09:47:30;1.20;;;0.90;;
18376;SDS011;9315;52.624;13.544;2022-10-16T09:50:05;1.87;;;0.90;;
18376;SDS011;9315;52.624;13.544;2022-10-16T09:53:13;1.63;;;0.85;;
18376;SDS011;9315;52.624;13.544;2022-10-16T09:55:49;1.58;;;0.85;;
18376;SDS011;9315;52.624;13.544;2022-10-16T09:58:23;2.60;;;0.88;;
18376;SDS011;9315;52.624;13.544;2022-10-16T10:00:52;0.95;;;0.85;;
18376;SDS011;9315;52.624;13.544;2022-10-16T10:11:56;1.27;;;0.70;;
18376;SDS011;9315;52.624;13.544;2022-10-16T10:14:52;0.80;;;0.80;;
18376;SDS011;9315;52.624;13.544;2022-10-16T10:17:30;1.90;;;0.95;;
18376;SDS011;9315;52.624;13.544;2022-10-16T10:19:59;2.15;;;1.00;;
18376;SDS011;9315;52.624;13.544;2022-10-16T10:23:22;1.77;;;0.70;;
18376;SDS011;9315;52.624;13.544;2022-10-16T10:25:53;2.25;;;0.77;;
18376;SDS011;9315;52.624;13.544;2022-10-16T10:31:44;2.65;;;0.82;;
18376;SDS011;9315;52.624;13.544;2022-10-16T10:47:55;1.15;;;0.35;;
18376;SDS011;9315;52.624;13.544;2022-10-16T10:56:15;2.00;;;1.05;;
18376;SDS011;9315;52.624;13.544;2022-10-16T10:59:02;0.85;;;0.60;;
18376;SDS011;9315;52.624;13.544;2022-10-16T11:01:50;1.17;;;0.40;;
18376;SDS011;9315;52.624;13.544;2022-10-16T11:04:44;0.80;;;0.50;;
18376;SDS011;9315;52.624;13.544;2022-10-16T11:10:45;1.50;;;0.70;;
18376;SDS011;9315;52.624;13.544;2022-10-16T11:16:23;1.50;;;0.60;;
18376;SDS011;9315;52.624;13.544;2022-10-16T11:27:20;1.08;;;0.40;;
18376;SDS011;9315;52.624;13.544;2022-10-16T11:30:20;2.70;;;0.60;;
18376;SDS011;9315;52.624;13.544;2022-10-16T11:35:48;0.40;;;0.40;;
18376;SDS011;9315;52.624;13.544;2022-10-16T11:45:03;1.33;;;0.40;;
18376;SDS011;9315;52.624;13.544;2022-10-16T11:48:00;0.50;;;0.38;;
18376;SDS011;9315;52.624;13.544;2022-10-16T11:50:43;3.35;;;0.35;;
18376;SDS011;9315;52.624;13.544;2022-10-16T11:53:37;2.60;;;0.47;;
18376;SDS011;9315;52.624;13.544;2022-10-16T11:56:25;5.72;;;0.43;;
18376;SDS011;9315;52.624;13.544;2022-10-16T11:58:58;1.05;;;0.30;;
18376;SDS011;9315;52.624;13.544;2022-10-16T12:08:11;0.35;;;0.20;;
18376;SDS011;9315;52.624;13.544;2022-10-16T12:10:42;1.27;;;0.30;;
18376;SDS011;9315;52.624;13.544;2022-10-16T12:13:29;2.28;;;0.38;;
18376;SDS011;9315;52.624;13.544;2022-10-16T12:18:42;5.22;;;0.30;;
18376;SDS011;9315;52.624;13.544;2022-10-16T12:21:12;0.82;;;0.40;;
18376;SDS011;9315;52.624;13.544;2022-10-16T12:23:49;1.77;;;0.40;;
18376;SDS011;9315;52.624;13.544;2022-10-16T12:26:26;0.88;;;0.30;;
18376;SDS011;9315;52.624;13.544;2022-10-16T12:29:12;1.08;;;0.45;;
18376;SDS011;9315;52.624;13.544;2022-10-16T12:35:22;2.20;;;0.30;;
18376;SDS011;9315;52.624;13.544;2022-10-16T12:41:08;1.55;;;0.35;;
18376;SDS011;9315;52.624;13.544;2022-10-16T12:43:38;3.20;;;0.30;;
18376;SDS011;9315;52.624;13.544;2022-10-16T12:48:40;1.98;;;0.47;;
18376;SDS011;9315;52.624;13.544;2022-10-16T12:54:01;2.75;;;0.30;;
18376;SDS011;9315;52.624;13.544;2022-10-16T12:56:58;0.40;;;0.30;;
18376;SDS011;9315;52.624;13.544;2022-10-16T13:12:49;0.52;;;0.28;;
18376;SDS011;9315;52.624;13.544;2022-10-16T13:22:40;0.70;;;0.20;;
18376;SDS011;9315;52.624;13.544;2022-10-16T13:28:13;1.77;;;0.10;;
18376;SDS011;9315;52.624;13.544;2022-10-16T13:30:43;0.10;;;0.10;;
18376;SDS011;9315;52.624;13.544;2022-10-16T13:36:06;1.23;;;0.30;;
18376;SDS011;9315;52.624;13.544;2022-10-16T13:41:57;0.20;;;0.13;;
18376;SDS011;9315;52.624;13.544;2022-10-16T13:44:41;0.82;;;0.22;;
18376;SDS011;9315;52.624;13.544;2022-10-16T13:47:26;0.85;;;0.20;;
18376;SDS011;9315;52.624;13.544;2022-10-16T13:50:15;0.20;;;0.17;;
18376;SDS011;9315;52.624;13.544;2022-10-16T13:52:45;0.63;;;0.30;;
18376;SDS011;9315;52.624;13.544;2022-10-16T13:55:18;0.20;;;0.20;;
18376;SDS011;9315;52.624;13.544;2022-10-16T13:57:47;1.67;;;0.20;;
18376;SDS011;9315;52.624;13.544;2022-10-16T14:00:22;0.90;;;0.10;;
18376;SDS011;9315;52.624;13.544;2022-10-16T14:03:12;1.23;;;0.30;;
18376;SDS011;9315;52.624;13.544;2022-10-16T14:05:48;5.57;;;0.30;;
18376;SDS011;9315;52.624;13.544;2022-10-16T14:08:19;2.65;;;0.20;;
18376;SDS011;9315;52.624;13.544;2022-10-16T14:10:48;0.95;;;0.35;;
18376;SDS011;9315;52.624;13.544;2022-10-16T14:13:32;1.48;;;0.17;;
18376;SDS011;9315;52.624;13.544;2022-10-16T14:16:11;3.85;;;0.38;;
18376;SDS011;9315;52.624;13.544;2022-10-16T14:18:55;5.70;;;0.30;;
18376;SDS011;9315;52.624;13.544;2022-10-16T14:21:31;1.50;;;0.20;;
18376;SDS011;9315;52.624;13.544;2022-10-16T14:24:10;0.25;;;0.20;;
18376;SDS011;9315;52.624;13.544;2022-10-16T14:26:40;0.25;;;0.20;;
18376;SDS011;9315;52.624;13.544;2022-10-16T14:29:19;1.42;;;0.30;;
18376;SDS011;9315;52.624;13.544;2022-10-16T14:31:57;1.75;;;0.22;;
18376;SDS011;9315;52.624;13.544;2022-10-16T14:34:31;1.42;;;0.30;;
18376;SDS011;9315;52.624;13.544;2022-10-16T14:37:08;0.47;;;0.15;;
18376;SDS011;9315;52.624;13.544;2022-10-16T14:39:54;1.33;;;0.20;;
18376;SDS011;9315;52.624;13.544;2022-10-16T14:42:23;0.85;;;0.30;;
18376;SDS011;9315;52.624;13.544;2022-10-16T14:44:51;0.43;;;0.20;;
18376;SDS011;9315;52.624;13.544;2022-10-16T14:47:24;0.40;;;0.28;;
18376;SDS011;9315;52.624;13.544;2022-10-16T14:49:53;3.83;;;0.30;;
18376;SDS011;9315;52.624;13.544;2022-10-16T14:52:22;1.42;;;0.30;;
18376;SDS011;9315;52.624;13.544;2022-10-16T14:54:49;2.55;;;0.40;;
18376;SDS011;9315;52.624;13.544;2022-10-16T14:57:22;4.25;;;0.45;;
18376;SDS011;9315;52.624;13.544;2022-10-16T14:59:56;1.42;;;0.40;;
18376;SDS011;9315;52.624;13.544;2022-10-16T15:02:28;1.63;;;0.30;;
18376;SDS011;9315;52.624;13.544;2022-10-16T15:05:02;3.03;;;0.30;;
18376;SDS011;9315;52.624;13.544;2022-10-16T15:07:50;1.65;;;0.30;;
18376;SDS011;9315;52.624;13.544;2022-10-16T15:10:22;1.35;;;0.13;;
18376;SDS011;9315;52.624;13.544;2022-10-16T15:12:51;1.88;;;0.30;;
18376;SDS011;9315;52.624;13.544;2022-10-16T15:17:49;2.67;;;0.47;;
18376;SDS011;9315;52.624;13.544;2022-10-16T15:20:35;4.25;;;0.45;;
18376;SDS011;9315;52.624;13.544;2022-10-16T15:23:14;1.52;;;0.45;;
18376;SDS011;9315;52.624;13.544;2022-10-16T15:25:49;8.68;;;0.65;;
18376;SDS011;9315;52.624;13.544;2022-10-16T15:28:20;1.63;;;0.70;;
18376;SDS011;9315;52.624;13.544;2022-10-16T15:30:51;1.23;;;0.40;;
18376;SDS011;9315;52.624;13.544;2022-10-16T15:33:21;7.55;;;0.60;;
18376;SDS011;9315;52.624;13.544;2022-10-16T15:36:05;2.03;;;0.40;;
18376;SDS011;9315;52.624;13.544;2022-10-16T15:38:33;1.77;;;0.35;;
18376;SDS011;9315;52.624;13.544;2022-10-16T15:41:01;4.60;;;0.50;;
18376;SDS011;9315;52.624;13.544;2022-10-16T15:43:28;4.68;;;0.50;;
18376;SDS011;9315;52.624;13.544;2022-10-16T15:46:03;2.15;;;0.40;;
18376;SDS011;9315;52.624;13.544;2022-10-16T15:48:34;0.60;;;0.30;;
18376;SDS011;9315;52.624;13.544;2022-10-16T15:51:04;1.08;;;0.47;;
18376;SDS011;9315;52.624;13.544;2022-10-16T15:53:34;3.70;;;0.50;;
18376;SDS011;9315;52.624;13.544;2022-10-16T15:56:02;2.30;;;0.47;;
18376;SDS011;9315;52.624;13.544;2022-10-16T15:58:31;3.85;;;0.52;;
18376;SDS011;9315;52.624;13.544;2022-10-16T16:00:58;5.25;;;0.50;;
18376;SDS011;9315;52.624;13.544;2022-10-16T16:03:27;2.25;;;0.50;;
18376;SDS011;9315;52.624;13.544;2022-10-16T16:05:55;2.80;;;0.60;;
18376;SDS011;9315;52.624;13.544;2022-10-16T16:08:22;8.20;;;0.57;;
18376;SDS011;9315;52.624;13.544;2022-10-16T16:13:38;0.57;;;0.50;;
18376;SDS011;9315;52.624;13.544;2022-10-16T16:16:07;4.05;;;0.68;;
18376;SDS011;9315;52.624;13.544;2022-10-16T16:18:38;4.68;;;0.50;;
18376;SDS011;9315;52.624;13.544;2022-10-16T16:21:05;7.03;;;1.02;;
18376;SDS011;9315;52.624;13.544;2022-10-16T16:23:33;2.88;;;0.57;;
18376;SDS011;9315;52.624;13.544;2022-10-16T16:28:40;2.63;;;0.93;;
18376;SDS011;9315;52.624;13.544;2022-10-16T16:31:09;1.85;;;0.90;;
18376;SDS011;9315;52.624;13.544;2022-10-16T16:33:36;3.50;;;0.90;;
18376;SDS011;9315;52.624;13.544;2022-10-16T16:36:04;1.17;;;0.52;;
18376;SDS011;9315;52.624;13.544;2022-10-16T16:38:39;3.50;;;1.00;;
18376;SDS011;9315;52.624;13.544;2022-10-16T16:41:17;1.73;;;0.70;;
18376;SDS011;9315;52.624;13.544;2022-10-16T16:43:49;5.18;;;0.80;;
18376;SDS011;9315;52.624;13.544;2022-10-16T16:46:19;15.90;;;1.30;;
18376;SDS011;9315;52.624;13.544;2022-10-16T16:48:47;5.13;;;0.93;;
18376;SDS011;9315;52.624;13.544;2022-10-16T16:51:19;4.28;;;1.02;;
18376;SDS011;9315;52.624;13.544;2022-10-16T16:53:47;3.07;;;1.20;;
18376;SDS011;9315;52.624;13.544;2022-10-16T16:56:18;5.97;;;0.80;;
18376;SDS011;9315;52.624;13.544;2022-10-16T16:58:49;2.27;;;0.90;;
18376;SDS011;9315;52.624;13.544;2022-10-16T17:01:21;7.40;;;1.20;;
18376;SDS011;9315;52.624;13.544;2022-10-16T17:03:51;1.10;;;0.80;;
18376;SDS011;9315;52.624;13.544;2022-10-16T17:06:22;3.67;;;1.10;;
18376;SDS011;9315;52.624;13.544;2022-10-16T17:08:55;8.90;;;1.27;;
18376;SDS011;9315;52.624;13.544;2022-10-16T17:11:23;3.60;;;1.00;;
18376;SDS011;9315;52.624;13.544;2022-10-16T17:13:53;9.37;;;1.67;;
18376;SDS011;9315;52.624;13.544;2022-10-16T17:16:28;8.23;;;1.00;;
18376;SDS011;9315;52.624;13.544;2022-10-16T17:19:00;13.73;;;1.27;;
18376;SDS011;9315;52.624;13.544;2022-10-16T17:21:37;15.10;;;1.37;;
18376;SDS011;9315;52.624;13.544;2022-10-16T17:24:04;16.13;;;1.40;;
18376;SDS011;9315;52.624;13.544;2022-10-16T17:26:32;12.20;;;1.50;;
18376;SDS011;9315;52.624;13.544;2022-10-16T17:29:03;7.20;;;1.00;;
18376;SDS011;9315;52.624;13.544;2022-10-16T17:31:32;3.33;;;1.00;;
18376;SDS011;9315;52.624;13.544;2022-10-16T17:34:03;7.07;;;1.33;;
18376;SDS011;9315;52.624;13.544;2022-10-16T17:36:34;5.23;;;1.33;;